createdAt,value
2023-04-11T00:00:17.354Z,52.78
2023-04-11T00:05:50.574Z,56.91
2023-04-11T00:08:18.226Z,58.96
2023-04-11T00:10:46.116Z,60.62
2023-04-11T00:13:13.764Z,61.40
2023-04-11T00:15:41.419Z,61.53
2023-04-11T00:18:09.282Z,67.21
2023-04-11T00:20:36.948Z,60.39
2023-04-11T00:23:04.580Z,52.41
2023-04-11T00:25:33.264Z,53.39
2023-04-11T00:28:00.956Z,55.85
2023-04-11T00:30:28.615Z,58.58
2023-04-11T00:32:56.698Z,60.50
2023-04-11T00:35:24.451Z,61.76
2023-04-11T00:37:56.305Z,67.12
2023-04-11T00:40:24.490Z,60.55
2023-04-11T00:42:52.246Z,52.68
2023-04-11T00:45:20.018Z,53.74
2023-04-11T00:47:47.812Z,55.99
2023-04-11T00:50:16.173Z,58.54
2023-04-11T00:52:43.920Z,60.58
2023-04-11T00:55:11.577Z,61.07
2023-04-11T00:57:39.536Z,67.22
2023-04-11T01:02:53.000Z,52.99
2023-04-11T01:05:20.964Z,54.47
2023-04-11T01:07:48.967Z,57.27
2023-04-11T01:10:16.703Z,59.45
2023-04-11T01:12:44.360Z,61.21
2023-04-11T01:15:12.028Z,66.12
2023-04-11T01:17:41.917Z,60.53
2023-04-11T01:20:10.215Z,52.57
2023-04-11T01:22:37.995Z,53.82
2023-04-11T01:25:05.749Z,56.41
2023-04-11T01:27:34.332Z,58.50
2023-04-11T01:30:02.143Z,59.83
2023-04-11T01:32:29.987Z,66.51
2023-04-11T01:34:58.033Z,62.10
2023-04-11T01:37:25.793Z,53.53
2023-04-11T01:39:53.560Z,54.16
2023-04-11T01:42:21.218Z,56.92
2023-04-11T01:44:48.877Z,59.32
2023-04-11T01:47:16.639Z,60.95
2023-04-11T01:49:44.303Z,65.97
2023-04-11T01:52:11.965Z,61.36
2023-04-11T01:54:39.626Z,53.19
2023-04-11T01:57:07.394Z,54.12
2023-04-11T01:59:35.159Z,57.33
2023-04-11T02:02:03.099Z,59.58
2023-04-11T02:04:31.098Z,61.36
2023-04-11T02:06:58.856Z,66.51
2023-04-11T02:09:26.617Z,60.80
2023-04-11T02:11:54.393Z,53.09
2023-04-11T02:14:22.060Z,54.61
2023-04-11T02:16:50.452Z,57.57
2023-04-11T02:19:18.290Z,59.82
2023-04-11T02:21:46.673Z,61.81
2023-04-11T02:24:14.329Z,67.24
2023-04-11T02:26:42.210Z,60.34
2023-04-11T02:29:10.065Z,53.30
2023-04-11T02:31:37.927Z,55.06
2023-04-11T02:34:05.795Z,57.69
2023-04-11T02:36:33.661Z,59.62
2023-04-11T02:39:01.327Z,61.56
2023-04-11T02:41:29.089Z,67.26
2023-04-11T02:43:56.854Z,60.55
2023-04-11T02:46:24.623Z,53.08
2023-04-11T02:48:52.278Z,54.51
2023-04-11T02:51:19.936Z,57.28
2023-04-11T02:53:47.705Z,59.66
2023-04-11T02:56:19.029Z,62.08
2023-04-11T02:58:47.195Z,67.46
2023-04-11T03:01:17.394Z,59.71
2023-04-11T03:03:45.175Z,53.13
2023-04-11T03:06:13.077Z,54.99
2023-04-11T03:08:40.742Z,57.91
2023-04-11T03:11:08.502Z,60.23
2023-04-11T03:13:39.548Z,61.81
2023-04-11T03:16:07.268Z,66.81
2023-04-11T03:18:35.171Z,59.62
2023-04-11T03:21:02.834Z,52.54
2023-04-11T03:23:32.257Z,54.39
2023-04-11T03:26:00.749Z,57.16
2023-04-11T03:28:28.592Z,59.45
2023-04-11T03:30:56.398Z,61.52
2023-04-11T03:33:24.229Z,66.74
2023-04-11T03:35:51.904Z,59.41
2023-04-11T03:38:21.186Z,52.57
2023-04-11T03:40:48.953Z,54.81
2023-04-11T03:43:17.527Z,57.51
2023-04-11T03:45:45.292Z,59.65
2023-04-11T03:48:13.055Z,61.24
2023-04-11T03:50:40.816Z,66.04
2023-04-11T03:53:08.485Z,60.55
2023-04-11T03:55:36.145Z,52.78
2023-04-11T03:58:04.110Z,53.74
2023-04-11T04:00:31.875Z,56.51
2023-04-11T04:02:59.714Z,58.82
2023-04-11T04:05:27.605Z,60.14
2023-04-11T04:07:55.991Z,61.75
2023-04-11T04:10:23.954Z,67.11
2023-04-11T04:12:51.615Z,60.51
2023-04-11T04:15:19.236Z,52.44
2023-04-11T04:17:46.992Z,53.75
2023-04-11T04:20:15.018Z,56.78
2023-04-11T04:22:42.784Z,59.16
2023-04-11T04:25:13.001Z,60.83
2023-04-11T04:27:44.467Z,66.18
2023-04-11T04:30:12.209Z,60.07
2023-04-11T04:32:41.454Z,52.64
2023-04-11T04:35:09.173Z,54.34
2023-04-11T04:37:39.904Z,57.25
2023-04-11T04:40:08.031Z,59.54
2023-04-11T04:42:36.564Z,61.31
2023-04-11T04:45:04.328Z,66.24
2023-04-11T04:47:32.006Z,59.55
2023-04-11T04:49:59.755Z,52.26
2023-04-11T04:52:27.639Z,54.27
2023-04-11T04:54:58.154Z,56.99
2023-04-11T04:57:26.110Z,59.19
2023-04-11T04:59:53.876Z,60.88
2023-04-11T05:02:21.973Z,66.28
2023-04-11T05:04:50.500Z,60.23
2023-04-11T05:07:18.497Z,52.37
2023-04-11T05:09:46.268Z,53.99
2023-04-11T05:12:14.128Z,56.62
2023-04-11T05:14:41.793Z,59.00
2023-04-11T05:17:09.554Z,60.44
2023-04-11T05:19:37.318Z,63.08
2023-04-11T05:22:04.979Z,66.49
2023-04-11T05:24:32.641Z,56.24
2023-04-11T05:27:00.818Z,53.14
2023-04-11T05:29:30.220Z,55.76
2023-04-11T05:31:57.878Z,58.28
2023-04-11T05:34:25.650Z,60.26
2023-04-11T05:36:53.525Z,61.80
2023-04-11T05:39:21.795Z,68.31
2023-04-11T05:41:49.428Z,60.02
2023-04-11T05:44:17.112Z,53.15
2023-04-11T05:46:44.794Z,55.22
2023-04-11T05:49:12.581Z,58.62
2023-04-11T05:51:40.507Z,60.66
2023-04-11T05:54:08.182Z,64.12
2023-04-11T05:56:37.687Z,66.53
2023-04-11T05:59:05.435Z,56.29
2023-04-11T06:01:33.200Z,53.58
2023-04-11T06:04:01.303Z,56.97
2023-04-11T06:06:29.445Z,59.98
2023-04-11T06:08:57.318Z,62.27
2023-04-11T06:11:27.426Z,67.76
2023-04-11T06:13:55.431Z,60.63
2023-04-11T06:16:23.327Z,53.69
2023-04-11T06:18:51.027Z,55.30
2023-04-11T06:21:18.793Z,59.02
2023-04-11T06:23:46.554Z,61.08
2023-04-11T06:26:14.219Z,66.74
2023-04-11T06:28:41.983Z,60.94
2023-04-11T06:31:09.703Z,53.99
2023-04-11T06:33:37.509Z,55.66
2023-04-11T06:36:06.159Z,59.18
2023-04-11T06:38:36.886Z,61.73
2023-04-11T06:41:04.592Z,67.53
2023-04-11T06:43:32.666Z,60.65
2023-04-11T06:46:00.426Z,54.06
2023-04-11T06:48:28.092Z,55.86
2023-04-11T06:50:56.058Z,58.57
2023-04-11T06:53:23.826Z,61.06
2023-04-11T06:55:51.511Z,66.36
2023-04-11T06:58:19.454Z,60.85
2023-04-11T07:00:47.129Z,53.98
2023-04-11T07:03:15.158Z,55.47
2023-04-11T07:05:43.078Z,58.53
2023-04-11T07:08:11.331Z,60.33
2023-04-11T07:10:39.107Z,66.22
2023-04-11T07:13:06.857Z,62.13
2023-04-11T07:15:34.518Z,54.69
2023-04-11T07:18:02.213Z,54.74
2023-04-11T07:20:33.027Z,57.53
2023-04-11T07:23:00.787Z,60.66
2023-04-11T07:25:31.016Z,66.06
2023-04-11T07:27:58.764Z,61.32
2023-04-11T07:30:26.564Z,54.96
2023-04-11T07:32:54.316Z,55.49
2023-04-11T07:35:22.065Z,57.36
2023-04-11T07:37:49.720Z,59.36
2023-04-11T07:40:18.114Z,61.61
2023-04-11T07:42:46.678Z,66.97
2023-04-11T07:45:14.347Z,61.70
2023-04-11T07:47:42.437Z,54.66
2023-04-11T07:50:10.284Z,55.18
2023-04-11T07:52:37.959Z,57.56
2023-04-11T07:55:05.701Z,60.03
2023-04-11T07:57:33.570Z,64.97
2023-04-11T08:00:01.337Z,60.83
2023-04-11T08:02:29.176Z,52.95
2023-04-11T08:04:57.439Z,54.58
2023-04-11T08:07:25.244Z,57.53
2023-04-11T08:09:53.207Z,59.45
2023-04-11T08:12:21.284Z,60.04
2023-04-11T08:14:48.948Z,60.63
2023-04-11T08:17:27.674Z,65.73
2023-04-11T08:19:57.795Z,60.32
2023-04-11T08:22:26.269Z,52.57
2023-04-11T08:24:53.937Z,53.81
2023-04-11T08:27:21.803Z,56.22
2023-04-11T08:29:49.457Z,58.31
2023-04-11T08:32:17.117Z,59.79
2023-04-11T08:34:44.780Z,61.51
2023-04-11T08:37:12.448Z,66.89
2023-04-11T08:39:40.106Z,61.47
2023-04-11T08:42:07.765Z,52.27
2023-04-11T08:44:37.163Z,52.14
2023-04-11T08:47:04.826Z,55.84
2023-04-11T08:49:32.488Z,58.09
2023-04-11T08:52:00.153Z,59.11
2023-04-11T08:54:27.919Z,60.84
2023-04-11T08:56:55.778Z,60.58
2023-04-11T08:59:23.442Z,66.19
2023-04-11T09:01:51.444Z,59.62
2023-04-11T09:04:19.399Z,52.40
2023-04-11T09:06:47.146Z,53.31
2023-04-11T09:09:14.811Z,55.11
2023-04-11T09:11:42.464Z,56.82
2023-04-11T09:14:10.273Z,57.90
2023-04-11T09:16:37.990Z,57.77
2023-04-11T09:19:05.969Z,59.51
2023-04-11T09:21:33.628Z,60.41
2023-04-11T09:24:01.392Z,66.20
2023-04-11T09:26:29.156Z,59.03
2023-04-11T09:28:57.365Z,52.67
2023-04-11T09:31:25.223Z,53.61
2023-04-11T09:33:53.675Z,56.77
2023-04-11T09:36:21.542Z,58.21
2023-04-11T09:38:49.305Z,58.65
2023-04-11T09:41:17.285Z,59.70
2023-04-11T09:43:45.037Z,60.88
2023-04-11T09:46:18.629Z,66.60
2023-04-11T09:48:47.095Z,60.14
2023-04-11T09:51:24.386Z,51.65
2023-04-11T09:54:03.999Z,51.63
2023-04-11T09:56:34.569Z,52.93
2023-04-11T09:59:02.648Z,56.78
2023-04-11T10:01:30.634Z,56.86
2023-04-11T10:03:58.664Z,58.55
2023-04-11T10:06:26.862Z,58.77
2023-04-11T10:08:54.785Z,59.69
2023-04-11T10:11:24.391Z,59.52
2023-04-11T10:13:52.326Z,64.44
2023-04-11T10:16:20.498Z,60.36
2023-04-11T10:18:48.246Z,51.60
2023-04-11T10:21:16.927Z,51.50
2023-04-11T10:23:44.587Z,53.25
2023-04-11T10:26:14.414Z,55.16
2023-04-11T10:28:42.173Z,55.85
2023-04-11T10:31:13.184Z,57.35
2023-04-11T10:33:41.177Z,57.87
2023-04-11T10:36:12.644Z,59.43
2023-04-11T10:38:41.178Z,60.87
2023-04-11T10:41:08.973Z,63.07
2023-04-11T10:43:39.051Z,61.68
2023-04-11T10:46:06.969Z,50.88
2023-04-11T10:48:34.646Z,51.99
2023-04-11T10:51:02.283Z,53.33
2023-04-11T10:53:34.040Z,56.38
2023-04-11T10:56:02.260Z,56.53
2023-04-11T10:58:29.979Z,55.82
2023-04-11T11:00:59.412Z,57.85
2023-04-11T11:03:28.769Z,58.29
2023-04-11T11:05:56.648Z,56.83
2023-04-11T11:08:24.310Z,58.83
2023-04-11T11:10:52.074Z,59.47
2023-04-11T11:13:19.837Z,57.68
2023-04-11T11:15:47.606Z,57.96
2023-04-11T11:18:15.260Z,58.02
2023-04-11T11:20:43.034Z,60.40
2023-04-11T11:23:11.480Z,57.87
2023-04-11T11:25:39.169Z,57.55
2023-04-11T11:28:07.031Z,59.63
2023-04-11T11:30:34.796Z,59.30
2023-04-11T11:33:02.589Z,61.12
2023-04-11T11:35:30.424Z,65.22
2023-04-11T11:37:58.088Z,57.32
2023-04-11T11:40:26.167Z,48.97
2023-04-11T11:42:53.842Z,49.03
2023-04-11T11:45:21.605Z,50.34
2023-04-11T11:47:49.495Z,53.23
2023-04-11T11:50:17.420Z,54.90
2023-04-11T11:52:45.088Z,56.07
2023-04-11T11:55:13.261Z,54.67
2023-04-11T11:57:41.332Z,55.41
2023-04-11T12:00:12.084Z,57.13
2023-04-11T12:02:40.254Z,56.25
2023-04-11T12:05:08.711Z,56.17
2023-04-11T12:07:37.017Z,56.77
2023-04-11T12:10:08.150Z,57.43
2023-04-11T12:12:38.780Z,57.30
2023-04-11T12:15:06.841Z,58.48
2023-04-11T12:17:36.311Z,58.30
2023-04-11T12:20:08.617Z,59.44
2023-04-11T12:22:36.283Z,58.58
2023-04-11T12:25:03.936Z,59.15
2023-04-11T12:27:33.466Z,57.75
2023-04-11T12:30:01.427Z,55.51
2023-04-11T12:32:29.188Z,56.90
2023-04-11T12:34:56.843Z,57.11
2023-04-11T12:37:24.498Z,56.11
2023-04-11T12:39:52.158Z,58.51
2023-04-11T12:42:21.118Z,58.75
2023-04-11T12:44:51.890Z,59.02
2023-04-11T12:47:19.759Z,58.00
2023-04-11T12:49:47.426Z,57.45
2023-04-11T12:52:15.077Z,57.17
2023-04-11T12:54:42.756Z,58.47
2023-04-11T12:57:12.581Z,58.07
2023-04-11T12:59:40.624Z,56.97
2023-04-11T13:02:08.310Z,57.85
2023-04-11T13:04:36.361Z,56.58
2023-04-11T13:07:04.326Z,55.63
2023-04-11T13:09:32.193Z,57.66
2023-04-11T13:11:59.956Z,55.38
2023-04-11T13:14:27.719Z,54.96
2023-04-11T13:16:55.790Z,55.04
2023-04-11T13:19:23.559Z,54.52
2023-04-11T13:21:51.331Z,54.72
2023-04-11T13:24:18.982Z,54.80
2023-04-11T13:26:46.751Z,55.53
2023-04-11T13:29:14.545Z,55.61
2023-04-11T13:31:42.332Z,56.91
2023-04-11T13:34:10.448Z,57.22
2023-04-11T13:36:38.216Z,57.31
2023-04-11T13:39:06.285Z,56.00
2023-04-11T13:41:33.944Z,56.09
2023-04-11T13:44:01.609Z,56.06
2023-04-11T13:46:29.376Z,57.13
2023-04-11T13:48:57.251Z,56.21
2023-04-11T13:51:25.104Z,57.37
2023-04-11T13:53:52.766Z,56.06
2023-04-11T13:56:20.910Z,56.98
2023-04-11T13:58:48.608Z,54.97
2023-04-11T14:01:16.357Z,54.93
2023-04-11T14:03:45.042Z,56.00
2023-04-11T14:06:12.927Z,55.49
2023-04-11T14:08:40.581Z,56.05
2023-04-11T14:11:08.449Z,54.22
2023-04-11T14:13:36.210Z,54.46
2023-04-11T14:16:08.954Z,55.27
2023-04-11T14:18:37.380Z,54.48
2023-04-11T14:21:05.141Z,53.90
2023-04-11T14:23:32.806Z,53.80
2023-04-11T14:26:00.885Z,53.43
2023-04-11T14:28:28.632Z,53.77
2023-04-11T14:30:56.682Z,53.64
2023-04-11T14:33:24.460Z,54.84
2023-04-11T14:35:52.126Z,52.19
2023-04-11T14:38:19.783Z,52.79
2023-04-11T14:40:47.550Z,53.17
2023-04-11T14:43:15.316Z,53.62
2023-04-11T14:45:43.167Z,53.62
2023-04-11T14:48:11.580Z,54.06
2023-04-11T14:50:39.321Z,53.31
2023-04-11T14:53:06.982Z,53.26
2023-04-11T14:55:34.648Z,53.19
2023-04-11T14:58:02.304Z,52.52
2023-04-11T15:00:29.969Z,51.52
2023-04-11T15:02:57.952Z,51.00
2023-04-11T15:05:26.005Z,49.40
2023-04-11T15:07:53.780Z,48.08
2023-04-11T15:10:21.535Z,47.39
2023-04-11T15:12:49.303Z,47.05
2023-04-11T15:15:17.071Z,46.99
2023-04-11T15:17:45.388Z,46.30
2023-04-11T15:20:14.675Z,45.38
2023-04-11T15:22:42.504Z,45.18
2023-04-11T15:25:10.278Z,46.32
2023-04-11T15:27:37.910Z,46.75
2023-04-11T15:30:06.245Z,47.07
2023-04-11T15:32:34.031Z,47.52
2023-04-11T15:35:02.012Z,47.38
2023-04-11T15:37:29.879Z,46.96
2023-04-11T15:39:58.184Z,45.69
2023-04-11T15:42:26.021Z,45.63
2023-04-11T15:44:53.754Z,45.62
2023-04-11T15:47:21.699Z,46.53
2023-04-11T15:49:49.445Z,46.78
2023-04-11T15:52:17.619Z,47.06
2023-04-11T15:54:45.906Z,46.50
2023-04-11T15:57:13.669Z,48.02
2023-04-11T15:59:41.734Z,47.82
2023-04-11T16:02:09.521Z,48.87
2023-04-11T16:04:43.949Z,48.20
2023-04-11T16:07:13.242Z,48.23
2023-04-11T16:09:41.093Z,48.69
2023-04-11T16:12:08.849Z,49.32
2023-04-11T16:14:37.022Z,49.89
2023-04-11T16:17:04.688Z,50.11
2023-04-11T16:19:32.452Z,50.37
2023-04-11T16:22:00.215Z,50.56
2023-04-11T16:24:27.827Z,50.92
2023-04-11T16:26:57.075Z,50.89
2023-04-11T16:29:25.350Z,51.40
2023-04-11T16:31:53.159Z,51.73
2023-04-11T16:34:20.980Z,51.93
2023-04-11T16:36:48.757Z,52.44
2023-04-11T16:39:16.412Z,52.66
2023-04-11T16:41:44.072Z,52.75
2023-04-11T16:44:11.727Z,53.22
2023-04-11T16:46:39.449Z,53.29
2023-04-11T16:49:07.154Z,53.99
2023-04-11T16:51:36.672Z,54.20
2023-04-11T16:54:07.085Z,54.24
2023-04-11T16:56:34.756Z,54.32
2023-04-11T16:59:02.417Z,54.42
2023-04-11T17:01:30.102Z,54.49
2023-04-11T17:03:58.389Z,54.51
2023-04-11T17:06:27.443Z,54.59
2023-04-11T17:08:57.272Z,54.74
2023-04-11T17:11:25.031Z,54.83
2023-04-11T17:13:54.888Z,54.87
2023-04-11T17:16:22.923Z,54.82
2023-04-11T17:18:50.673Z,55.46
2023-04-11T17:21:18.738Z,55.86
2023-04-11T17:23:46.397Z,55.96
2023-04-11T17:26:14.266Z,56.09
2023-04-11T17:28:42.537Z,56.38
2023-04-11T17:31:10.854Z,56.81
2023-04-11T17:33:38.687Z,57.00
2023-04-11T17:36:06.472Z,57.25
2023-04-11T17:38:34.218Z,57.20
2023-04-11T17:41:13.779Z,57.59
2023-04-11T17:43:43.085Z,57.68
2023-04-11T17:46:10.890Z,57.48
2023-04-11T17:48:38.784Z,57.27
2023-04-11T17:51:06.956Z,57.21
2023-04-11T17:53:34.722Z,57.22
2023-04-11T17:56:02.393Z,56.99
2023-04-11T17:58:30.466Z,57.18
2023-04-11T18:00:58.114Z,57.16
2023-04-11T18:03:26.237Z,57.24
2023-04-11T18:05:54.838Z,57.76
2023-04-11T18:08:36.177Z,58.24
2023-04-11T18:11:11.199Z,58.69
2023-04-11T18:13:38.952Z,59.21
2023-04-11T18:16:06.755Z,60.06
2023-04-11T18:18:34.603Z,61.01
2023-04-11T18:21:04.027Z,61.89
2023-04-11T18:23:32.876Z,66.90
2023-04-11T18:26:00.748Z,63.75
2023-04-11T18:28:28.405Z,55.65
2023-04-11T18:30:56.395Z,53.84
2023-04-11T18:33:24.322Z,55.11
2023-04-11T18:35:52.185Z,56.22
2023-04-11T18:38:19.889Z,59.08
2023-04-11T18:40:48.457Z,59.98
2023-04-11T18:43:16.667Z,60.74
2023-04-11T18:45:45.208Z,66.10
2023-04-11T18:48:13.508Z,65.32
2023-04-11T18:50:43.182Z,57.41
2023-04-11T18:53:13.737Z,54.90
2023-04-11T18:55:41.794Z,56.74
2023-04-11T18:58:10.978Z,57.25
2023-04-11T19:00:42.049Z,59.51
2023-04-11T19:03:15.704Z,60.26
2023-04-11T19:05:44.237Z,61.88
2023-04-11T19:08:12.908Z,70.87
2023-04-11T19:10:40.567Z,66.08
2023-04-11T19:13:08.857Z,56.38
2023-04-11T19:15:36.605Z,55.53
2023-04-11T19:18:06.577Z,56.54
2023-04-11T19:20:34.385Z,58.69
2023-04-11T19:23:02.255Z,60.45
2023-04-11T19:25:30.017Z,61.48
2023-04-11T19:27:57.780Z,67.54
2023-04-11T19:30:25.448Z,63.19
2023-04-11T19:32:53.335Z,55.20
2023-04-11T19:35:24.510Z,54.25
2023-04-11T19:37:52.344Z,56.42
2023-04-11T19:40:23.547Z,58.40
2023-04-11T19:42:51.840Z,60.75
2023-04-11T19:45:19.632Z,61.50
2023-04-11T19:47:47.387Z,67.51
2023-04-11T19:50:15.248Z,63.87
2023-04-11T19:52:43.051Z,54.83
2023-04-11T19:55:10.868Z,53.78
2023-04-11T19:57:39.159Z,56.27
2023-04-11T20:00:12.344Z,57.68
2023-04-11T20:02:41.229Z,59.57
2023-04-11T20:05:09.405Z,61.01
2023-04-11T20:07:39.189Z,66.23
2023-04-11T20:10:08.282Z,63.39
2023-04-11T20:12:36.025Z,54.89
2023-04-11T20:15:03.792Z,54.55
2023-04-11T20:17:31.570Z,56.71
2023-04-11T20:19:59.214Z,60.14
2023-04-11T20:22:26.979Z,60.67
2023-04-11T20:24:54.745Z,64.25
2023-04-11T20:27:22.414Z,62.60
2023-04-11T20:29:50.068Z,56.08
2023-04-11T20:32:17.829Z,56.80
2023-04-11T20:34:46.215Z,58.44
2023-04-11T20:37:16.219Z,60.00
2023-04-11T20:39:44.705Z,60.68
2023-04-11T20:42:12.476Z,66.42
2023-04-11T20:44:41.799Z,63.35
2023-04-11T20:47:09.436Z,54.93
2023-04-11T20:49:37.091Z,53.84
2023-04-11T20:52:05.272Z,56.56
2023-04-11T20:54:33.028Z,58.53
2023-04-11T20:57:01.613Z,60.51
2023-04-11T20:59:30.192Z,66.37
2023-04-11T21:01:57.994Z,62.34
2023-04-11T21:04:25.865Z,55.02
2023-04-11T21:06:53.806Z,54.00
2023-04-11T21:09:21.455Z,55.95
2023-04-11T21:11:49.120Z,58.02
2023-04-11T21:14:16.984Z,59.95
2023-04-11T21:16:44.648Z,61.19
2023-04-11T21:19:12.411Z,66.46
2023-04-11T21:21:40.895Z,63.37
2023-04-11T21:24:09.477Z,55.89
2023-04-11T21:26:37.137Z,55.11
2023-04-11T21:29:04.800Z,57.42
2023-04-11T21:31:32.504Z,59.74
2023-04-11T21:34:00.551Z,64.15
2023-04-11T21:36:28.296Z,63.61
2023-04-11T21:38:56.115Z,54.50
2023-04-11T21:41:23.821Z,54.45
2023-04-11T21:43:51.485Z,57.99
2023-04-11T21:46:25.761Z,60.96
2023-04-11T21:48:53.567Z,65.31
2023-04-11T21:51:21.232Z,62.00
2023-04-11T21:53:49.007Z,54.29
2023-04-11T21:56:16.758Z,54.35
2023-04-11T21:58:44.417Z,56.67
2023-04-11T22:01:12.190Z,58.75
2023-04-11T22:03:42.920Z,60.41
2023-04-11T22:06:11.184Z,65.96
2023-04-11T22:08:39.478Z,63.35
2023-04-11T22:11:10.510Z,54.59
2023-04-11T22:13:39.811Z,54.65
2023-04-11T22:16:07.622Z,56.56
2023-04-11T22:18:47.098Z,58.95
2023-04-11T22:21:19.860Z,59.80
2023-04-11T22:23:47.664Z,65.97
2023-04-11T22:26:15.321Z,64.47
2023-04-11T22:28:42.983Z,56.15
2023-04-11T22:31:13.776Z,54.28
2023-04-11T22:33:41.585Z,56.61
2023-04-11T22:36:09.246Z,58.58
2023-04-11T22:38:37.215Z,62.22
2023-04-11T22:41:05.080Z,63.48
2023-04-11T22:43:33.570Z,56.17
2023-04-11T22:46:01.677Z,55.33
2023-04-11T22:48:29.913Z,56.54
2023-04-11T22:50:59.313Z,60.02
2023-04-11T22:53:27.073Z,64.52
2023-04-11T22:55:54.738Z,62.67
2023-04-11T22:58:22.397Z,54.75
2023-04-11T23:00:50.417Z,54.09
2023-04-11T23:03:18.825Z,56.84
2023-04-11T23:05:46.716Z,58.87
2023-04-11T23:10:59.750Z,67.25
2023-04-11T23:13:27.410Z,62.10
2023-04-11T23:15:55.787Z,54.35
2023-04-11T23:18:23.449Z,53.07
2023-04-11T23:20:51.111Z,56.24
2023-04-11T23:23:18.777Z,57.16
2023-04-11T23:25:46.554Z,59.53
2023-04-11T23:28:14.304Z,62.31
2023-04-11T23:30:42.087Z,67.68
2023-04-11T23:33:09.929Z,59.49
2023-04-11T23:35:37.959Z,53.33
2023-04-11T23:38:06.182Z,54.87
2023-04-11T23:40:33.936Z,57.16
2023-04-11T23:43:01.751Z,59.68
2023-04-11T23:45:29.364Z,61.23
2023-04-11T23:47:57.590Z,64.61
2023-04-11T23:50:25.403Z,62.14
2023-04-11T23:52:53.889Z,54.65
2023-04-11T23:55:22.180Z,54.46
2023-04-11T23:57:49.928Z,56.65
